Felts Field
KSFF : rendu visible

Aérodrome :











RETROUVEZ-NOUS SUR...

 
LOGIN :

S'inscrire | Disclaimer

   EN    FR    IT 

 









Légende :    VFR   VFR Marginal   IFR   IFR Intensif   IFR Très Intensif
Visi : 
Plafond : 
>= 8 km
>= 3000ft
5 à 8 km
1000 à 3000 ft
1500m à 5 km
500 à 1000 ft
800 à 1500m
200 à 500 ft
< 800m
< 200 ft
Symboles :   Orages  Brouillard  Fortes neiges  Fortes précipitations  Vent > 20 kt






- Altitude de l'aérodrome : 1953 ft


KSFF - Felts Field

DERNIER METAR :
  • 221753Z 00000KT 10SM SCT090 06/M02 A3006 RMK AO2 SLP190 T00561022 10056 21033 53006

METARs EXPIRÉS :
  • 221653Z 06003KT 10SM OVC095 03/M03 A3005 RMK AO2 SLP190 T00281028

TAF KSFF
Valide du 22 à 18h jusqu'au 23 à 18h UTC


221737Z 2218/2318 21004KT P6SM SCT080 BKN200
FM230400 VRB02KT P6SM SCT080 BKN150
FM231500 20006KT P6SM VCSH SCT040 OVC070 WS020/23036KT



MET'MAP, la Météo Aéronautique d'un coup d'oeil ! - Copyright ORBIFLY Décembre 2007 - Disclaimer

ORBIFLY MET'MAP TEAM :

Programmation & Développement : Alexandra Zaïnal
Sur une idée originale de : Baudouin d'Aumeries
Assistance à la programmation : Marc-Olivier Méhu
Soutien technique & logistique : Manuel Goepfert

Contact : metmap@orbifly.com




SOURCES & CREDITS :

   NOAA       Earth
Advisory